sensor_id;sensor_type;location;lat;lon;timestamp;P1;durP1;ratioP1;P2;durP2;ratioP2
45114;SDS011;30877;43.706;10.780;2023-09-19T00:00:40;13.52;;;5.45;;
45114;SDS011;30877;43.706;10.780;2023-09-19T00:03:09;17.00;;;5.28;;
45114;SDS011;30877;43.706;10.780;2023-09-19T00:05:39;12.57;;;5.63;;
45114;SDS011;30877;43.706;10.780;2023-09-19T00:08:12;9.07;;;4.80;;
45114;SDS011;30877;43.706;10.780;2023-09-19T00:10:41;9.52;;;4.90;;
45114;SDS011;30877;43.706;10.780;2023-09-19T00:13:10;16.70;;;5.43;;
45114;SDS011;30877;43.706;10.780;2023-09-19T00:15:44;13.20;;;5.07;;
45114;SDS011;30877;43.706;10.780;2023-09-19T00:18:16;11.10;;;5.15;;
45114;SDS011;30877;43.706;10.780;2023-09-19T00:20:45;12.82;;;5.60;;
45114;SDS011;30877;43.706;10.780;2023-09-19T00:23:14;15.77;;;5.70;;
45114;SDS011;30877;43.706;10.780;2023-09-19T00:25:42;15.93;;;5.20;;
45114;SDS011;30877;43.706;10.780;2023-09-19T00:28:10;13.57;;;5.22;;
45114;SDS011;30877;43.706;10.780;2023-09-19T00:30:38;12.75;;;5.00;;
45114;SDS011;30877;43.706;10.780;2023-09-19T00:33:10;13.00;;;5.75;;
45114;SDS011;30877;43.706;10.780;2023-09-19T00:35:47;10.55;;;5.50;;
45114;SDS011;30877;43.706;10.780;2023-09-19T00:38:15;13.88;;;5.20;;
45114;SDS011;30877;43.706;10.780;2023-09-19T00:40:44;17.85;;;5.30;;
45114;SDS011;30877;43.706;10.780;2023-09-19T00:43:12;8.55;;;5.10;;
45114;SDS011;30877;43.706;10.780;2023-09-19T00:45:42;17.33;;;5.70;;
45114;SDS011;30877;43.706;10.780;2023-09-19T00:48:14;15.30;;;5.30;;
45114;SDS011;30877;43.706;10.780;2023-09-19T00:50:42;17.02;;;5.20;;
45114;SDS011;30877;43.706;10.780;2023-09-19T00:55:41;12.68;;;5.35;;
45114;SDS011;30877;43.706;10.780;2023-09-19T00:58:09;13.13;;;4.45;;
45114;SDS011;30877;43.706;10.780;2023-09-19T01:00:39;13.48;;;5.22;;
45114;SDS011;30877;43.706;10.780;2023-09-19T01:03:07;11.73;;;5.55;;
45114;SDS011;30877;43.706;10.780;2023-09-19T01:05:38;11.85;;;5.30;;
45114;SDS011;30877;43.706;10.780;2023-09-19T01:08:06;10.00;;;4.75;;
45114;SDS011;30877;43.706;10.780;2023-09-19T01:10:34;12.68;;;5.47;;
45114;SDS011;30877;43.706;10.780;2023-09-19T01:13:06;11.38;;;5.38;;
45114;SDS011;30877;43.706;10.780;2023-09-19T01:15:44;11.95;;;4.38;;
45114;SDS011;30877;43.706;10.780;2023-09-19T01:18:21;12.25;;;4.93;;
45114;SDS011;30877;43.706;10.780;2023-09-19T01:21:01;11.07;;;5.30;;
45114;SDS011;30877;43.706;10.780;2023-09-19T01:23:48;14.05;;;4.88;;
45114;SDS011;30877;43.706;10.780;2023-09-19T01:26:50;13.75;;;5.03;;
45114;SDS011;30877;43.706;10.780;2023-09-19T01:29:36;10.00;;;5.38;;
45114;SDS011;30877;43.706;10.780;2023-09-19T01:32:08;12.60;;;4.82;;
45114;SDS011;30877;43.706;10.780;2023-09-19T01:34:43;13.15;;;5.38;;
45114;SDS011;30877;43.706;10.780;2023-09-19T01:37:14;11.82;;;4.97;;
45114;SDS011;30877;43.706;10.780;2023-09-19T01:39:47;10.27;;;5.18;;
45114;SDS011;30877;43.706;10.780;2023-09-19T01:42:23;10.98;;;4.97;;
45114;SDS011;30877;43.706;10.780;2023-09-19T01:44:59;15.63;;;4.95;;
45114;SDS011;30877;43.706;10.780;2023-09-19T01:47:37;11.35;;;4.25;;
45114;SDS011;30877;43.706;10.780;2023-09-19T01:50:12;12.93;;;4.68;;
45114;SDS011;30877;43.706;10.780;2023-09-19T01:52:46;14.35;;;5.40;;
45114;SDS011;30877;43.706;10.780;2023-09-19T01:55:21;10.57;;;5.60;;
45114;SDS011;30877;43.706;10.780;2023-09-19T01:57:53;14.95;;;5.22;;
45114;SDS011;30877;43.706;10.780;2023-09-19T02:00:28;11.57;;;5.32;;
45114;SDS011;30877;43.706;10.780;2023-09-19T02:03:01;13.48;;;4.85;;
45114;SDS011;30877;43.706;10.780;2023-09-19T02:05:30;13.40;;;5.60;;
45114;SDS011;30877;43.706;10.780;2023-09-19T02:08:00;14.98;;;4.95;;
45114;SDS011;30877;43.706;10.780;2023-09-19T02:10:28;11.70;;;4.78;;
45114;SDS011;30877;43.706;10.780;2023-09-19T02:12:58;11.73;;;4.85;;
45114;SDS011;30877;43.706;10.780;2023-09-19T02:15:26;14.45;;;5.07;;
45114;SDS011;30877;43.706;10.780;2023-09-19T02:17:54;11.07;;;4.72;;
45114;SDS011;30877;43.706;10.780;2023-09-19T02:20:25;13.80;;;6.05;;
45114;SDS011;30877;43.706;10.780;2023-09-19T02:22:53;14.85;;;4.28;;
45114;SDS011;30877;43.706;10.780;2023-09-19T02:25:21;15.95;;;5.22;;
45114;SDS011;30877;43.706;10.780;2023-09-19T02:27:50;15.95;;;5.20;;
45114;SDS011;30877;43.706;10.780;2023-09-19T02:30:21;12.50;;;4.80;;
45114;SDS011;30877;43.706;10.780;2023-09-19T02:32:50;12.85;;;4.50;;
45114;SDS011;30877;43.706;10.780;2023-09-19T02:35:18;10.27;;;4.30;;
45114;SDS011;30877;43.706;10.780;2023-09-19T02:37:51;13.57;;;4.47;;
45114;SDS011;30877;43.706;10.780;2023-09-19T02:40:19;18.92;;;4.38;;
45114;SDS011;30877;43.706;10.780;2023-09-19T02:42:47;14.40;;;4.15;;
45114;SDS011;30877;43.706;10.780;2023-09-19T02:45:17;12.93;;;4.40;;
45114;SDS011;30877;43.706;10.780;2023-09-19T02:47:45;18.15;;;4.90;;
45114;SDS011;30877;43.706;10.780;2023-09-19T02:50:14;11.75;;;4.60;;
45114;SDS011;30877;43.706;10.780;2023-09-19T02:52:46;9.80;;;4.70;;
45114;SDS011;30877;43.706;10.780;2023-09-19T02:55:20;9.93;;;4.32;;
45114;SDS011;30877;43.706;10.780;2023-09-19T02:57:49;11.13;;;4.78;;
45114;SDS011;30877;43.706;10.780;2023-09-19T03:00:19;10.18;;;4.80;;
45114;SDS011;30877;43.706;10.780;2023-09-19T03:02:48;10.07;;;4.53;;
45114;SDS011;30877;43.706;10.780;2023-09-19T03:05:17;13.98;;;4.97;;
45114;SDS011;30877;43.706;10.780;2023-09-19T03:07:46;12.93;;;5.40;;
45114;SDS011;30877;43.706;10.780;2023-09-19T03:10:20;12.18;;;4.38;;
45114;SDS011;30877;43.706;10.780;2023-09-19T03:12:49;10.98;;;4.82;;
45114;SDS011;30877;43.706;10.780;2023-09-19T03:15:18;14.77;;;5.07;;
45114;SDS011;30877;43.706;10.780;2023-09-19T03:17:50;11.73;;;5.03;;
45114;SDS011;30877;43.706;10.780;2023-09-19T03:20:22;11.50;;;4.85;;
45114;SDS011;30877;43.706;10.780;2023-09-19T03:22:50;11.27;;;4.93;;
45114;SDS011;30877;43.706;10.780;2023-09-19T03:25:22;13.35;;;5.35;;
45114;SDS011;30877;43.706;10.780;2023-09-19T03:27:52;12.30;;;4.38;;
45114;SDS011;30877;43.706;10.780;2023-09-19T03:30:22;12.07;;;4.63;;
45114;SDS011;30877;43.706;10.780;2023-09-19T03:32:50;8.70;;;4.65;;
45114;SDS011;30877;43.706;10.780;2023-09-19T03:35:19;11.52;;;5.03;;
45114;SDS011;30877;43.706;10.780;2023-09-19T03:37:47;8.35;;;4.00;;
45114;SDS011;30877;43.706;10.780;2023-09-19T03:40:16;9.73;;;4.75;;
45114;SDS011;30877;43.706;10.780;2023-09-19T03:42:50;9.73;;;5.10;;
45114;SDS011;30877;43.706;10.780;2023-09-19T03:45:18;9.80;;;5.00;;
45114;SDS011;30877;43.706;10.780;2023-09-19T03:47:49;12.30;;;5.03;;
45114;SDS011;30877;43.706;10.780;2023-09-19T03:50:20;10.30;;;5.28;;
45114;SDS011;30877;43.706;10.780;2023-09-19T03:52:49;13.25;;;4.80;;
45114;SDS011;30877;43.706;10.780;2023-09-19T03:55:17;11.27;;;5.32;;
45114;SDS011;30877;43.706;10.780;2023-09-19T03:57:47;12.20;;;4.72;;
45114;SDS011;30877;43.706;10.780;2023-09-19T04:00:18;12.63;;;4.82;;
45114;SDS011;30877;43.706;10.780;2023-09-19T04:02:48;11.15;;;4.78;;
45114;SDS011;30877;43.706;10.780;2023-09-19T04:05:18;9.52;;;4.28;;
45114;SDS011;30877;43.706;10.780;2023-09-19T04:07:46;9.27;;;4.60;;
45114;SDS011;30877;43.706;10.780;2023-09-19T04:10:14;8.30;;;4.53;;
45114;SDS011;30877;43.706;10.780;2023-09-19T04:12:51;13.27;;;5.32;;
45114;SDS011;30877;43.706;10.780;2023-09-19T04:15:21;12.13;;;5.22;;
45114;SDS011;30877;43.706;10.780;2023-09-19T04:17:52;13.57;;;4.63;;
45114;SDS011;30877;43.706;10.780;2023-09-19T04:20:21;14.00;;;5.35;;
45114;SDS011;30877;43.706;10.780;2023-09-19T04:22:52;11.85;;;4.38;;
45114;SDS011;30877;43.706;10.780;2023-09-19T04:25:20;8.90;;;4.22;;
45114;SDS011;30877;43.706;10.780;2023-09-19T04:27:48;11.68;;;4.18;;
45114;SDS011;30877;43.706;10.780;2023-09-19T04:30:18;14.57;;;5.50;;
45114;SDS011;30877;43.706;10.780;2023-09-19T04:32:46;13.43;;;4.80;;
45114;SDS011;30877;43.706;10.780;2023-09-19T04:35:18;12.82;;;4.13;;
45114;SDS011;30877;43.706;10.780;2023-09-19T04:37:47;12.70;;;4.85;;
45114;SDS011;30877;43.706;10.780;2023-09-19T04:40:15;14.07;;;4.57;;
45114;SDS011;30877;43.706;10.780;2023-09-19T04:42:52;16.10;;;5.32;;
45114;SDS011;30877;43.706;10.780;2023-09-19T04:45:25;15.00;;;5.03;;
45114;SDS011;30877;43.706;10.780;2023-09-19T04:47:54;12.20;;;4.45;;
45114;SDS011;30877;43.706;10.780;2023-09-19T04:50:23;12.02;;;4.30;;
45114;SDS011;30877;43.706;10.780;2023-09-19T04:52:55;16.23;;;4.72;;
45114;SDS011;30877;43.706;10.780;2023-09-19T04:55:23;14.88;;;4.40;;
45114;SDS011;30877;43.706;10.780;2023-09-19T04:57:51;13.95;;;4.53;;
45114;SDS011;30877;43.706;10.780;2023-09-19T05:00:23;11.85;;;4.18;;
45114;SDS011;30877;43.706;10.780;2023-09-19T05:02:55;14.98;;;4.43;;
45114;SDS011;30877;43.706;10.780;2023-09-19T05:05:24;14.73;;;4.50;;
45114;SDS011;30877;43.706;10.780;2023-09-19T05:07:53;13.82;;;4.60;;
45114;SDS011;30877;43.706;10.780;2023-09-19T05:10:23;16.10;;;4.75;;
45114;SDS011;30877;43.706;10.780;2023-09-19T05:12:52;15.38;;;4.70;;
45114;SDS011;30877;43.706;10.780;2023-09-19T05:15:20;9.07;;;3.85;;
45114;SDS011;30877;43.706;10.780;2023-09-19T05:17:50;18.95;;;4.88;;
45114;SDS011;30877;43.706;10.780;2023-09-19T05:20:24;10.38;;;4.38;;
45114;SDS011;30877;43.706;10.780;2023-09-19T05:23:03;15.23;;;4.10;;
45114;SDS011;30877;43.706;10.780;2023-09-19T05:25:36;14.60;;;4.60;;
45114;SDS011;30877;43.706;10.780;2023-09-19T05:28:06;13.73;;;4.50;;
45114;SDS011;30877;43.706;10.780;2023-09-19T05:30:35;14.40;;;4.05;;
45114;SDS011;30877;43.706;10.780;2023-09-19T05:33:07;18.40;;;5.00;;
45114;SDS011;30877;43.706;10.780;2023-09-19T05:35:35;16.83;;;4.85;;
45114;SDS011;30877;43.706;10.780;2023-09-19T05:38:06;14.38;;;4.70;;
45114;SDS011;30877;43.706;10.780;2023-09-19T05:40:40;20.42;;;4.72;;
45114;SDS011;30877;43.706;10.780;2023-09-19T05:43:09;20.80;;;6.22;;
45114;SDS011;30877;43.706;10.780;2023-09-19T05:45:37;19.67;;;5.40;;
45114;SDS011;30877;43.706;10.780;2023-09-19T05:48:10;22.00;;;6.18;;
45114;SDS011;30877;43.706;10.780;2023-09-19T05:50:40;19.00;;;5.20;;
45114;SDS011;30877;43.706;10.780;2023-09-19T05:53:09;18.60;;;6.35;;
45114;SDS011;30877;43.706;10.780;2023-09-19T05:55:42;17.10;;;5.95;;
45114;SDS011;30877;43.706;10.780;2023-09-19T05:58:10;17.98;;;6.03;;
45114;SDS011;30877;43.706;10.780;2023-09-19T06:00:41;19.70;;;5.53;;
45114;SDS011;30877;43.706;10.780;2023-09-19T06:03:13;15.68;;;5.18;;
45114;SDS011;30877;43.706;10.780;2023-09-19T06:05:42;17.20;;;5.45;;
45114;SDS011;30877;43.706;10.780;2023-09-19T06:08:10;15.98;;;5.28;;
45114;SDS011;30877;43.706;10.780;2023-09-19T06:10:39;13.73;;;5.70;;
45114;SDS011;30877;43.706;10.780;2023-09-19T06:13:07;19.88;;;6.00;;
45114;SDS011;30877;43.706;10.780;2023-09-19T06:15:38;12.00;;;4.13;;
45114;SDS011;30877;43.706;10.780;2023-09-19T06:18:10;13.90;;;4.68;;
45114;SDS011;30877;43.706;10.780;2023-09-19T06:20:47;14.73;;;4.57;;
45114;SDS011;30877;43.706;10.780;2023-09-19T06:23:18;14.68;;;5.65;;
45114;SDS011;30877;43.706;10.780;2023-09-19T06:25:48;15.68;;;5.05;;
45114;SDS011;30877;43.706;10.780;2023-09-19T06:28:17;13.38;;;5.28;;
45114;SDS011;30877;43.706;10.780;2023-09-19T06:30:51;14.85;;;5.20;;
45114;SDS011;30877;43.706;10.780;2023-09-19T06:33:20;19.83;;;6.45;;
45114;SDS011;30877;43.706;10.780;2023-09-19T06:35:49;17.58;;;6.65;;
45114;SDS011;30877;43.706;10.780;2023-09-19T06:38:20;22.00;;;7.90;;
45114;SDS011;30877;43.706;10.780;2023-09-19T06:40:48;19.42;;;6.85;;
45114;SDS011;30877;43.706;10.780;2023-09-19T06:43:17;15.77;;;6.45;;
45114;SDS011;30877;43.706;10.780;2023-09-19T06:45:45;15.95;;;6.78;;
45114;SDS011;30877;43.706;10.780;2023-09-19T06:48:14;22.50;;;6.57;;
45114;SDS011;30877;43.706;10.780;2023-09-19T06:50:44;18.42;;;6.72;;
45114;SDS011;30877;43.706;10.780;2023-09-19T06:53:12;18.25;;;6.10;;
45114;SDS011;30877;43.706;10.780;2023-09-19T06:55:40;17.00;;;6.25;;
45114;SDS011;30877;43.706;10.780;2023-09-19T06:58:11;22.70;;;5.95;;
45114;SDS011;30877;43.706;10.780;2023-09-19T07:00:39;15.82;;;4.63;;
45114;SDS011;30877;43.706;10.780;2023-09-19T07:03:07;16.83;;;4.30;;
45114;SDS011;30877;43.706;10.780;2023-09-19T07:05:39;15.43;;;4.47;;
45114;SDS011;30877;43.706;10.780;2023-09-19T07:08:09;15.40;;;4.38;;
45114;SDS011;30877;43.706;10.780;2023-09-19T07:10:40;13.30;;;3.80;;
45114;SDS011;30877;43.706;10.780;2023-09-19T07:13:16;14.38;;;3.88;;
45114;SDS011;30877;43.706;10.780;2023-09-19T07:15:45;17.05;;;3.88;;
45114;SDS011;30877;43.706;10.780;2023-09-19T07:18:14;14.27;;;4.55;;
45114;SDS011;30877;43.706;10.780;2023-09-19T07:20:44;18.13;;;4.75;;
45114;SDS011;30877;43.706;10.780;2023-09-19T07:23:21;11.70;;;3.97;;
45114;SDS011;30877;43.706;10.780;2023-09-19T07:25:51;14.75;;;4.13;;
45114;SDS011;30877;43.706;10.780;2023-09-19T07:28:19;19.50;;;5.53;;
45114;SDS011;30877;43.706;10.780;2023-09-19T07:30:47;13.88;;;4.55;;
45114;SDS011;30877;43.706;10.780;2023-09-19T07:33:15;12.43;;;3.38;;
45114;SDS011;30877;43.706;10.780;2023-09-19T07:35:45;15.32;;;4.20;;
45114;SDS011;30877;43.706;10.780;2023-09-19T07:38:13;14.35;;;3.72;;
45114;SDS011;30877;43.706;10.780;2023-09-19T07:40:43;21.40;;;4.72;;
45114;SDS011;30877;43.706;10.780;2023-09-19T07:43:12;12.70;;;4.05;;
45114;SDS011;30877;43.706;10.780;2023-09-19T07:45:40;18.77;;;5.18;;
45114;SDS011;30877;43.706;10.780;2023-09-19T07:48:09;21.20;;;4.68;;
45114;SDS011;30877;43.706;10.780;2023-09-19T07:50:42;12.27;;;4.07;;
45114;SDS011;30877;43.706;10.780;2023-09-19T07:53:13;12.73;;;3.63;;
45114;SDS011;30877;43.706;10.780;2023-09-19T07:55:45;19.63;;;3.95;;
45114;SDS011;30877;43.706;10.780;2023-09-19T07:58:15;12.60;;;3.42;;
45114;SDS011;30877;43.706;10.780;2023-09-19T08:00:44;40.08;;;5.60;;
45114;SDS011;30877;43.706;10.780;2023-09-19T08:03:13;11.45;;;3.22;;
45114;SDS011;30877;43.706;10.780;2023-09-19T08:05:44;11.10;;;3.63;;
45114;SDS011;30877;43.706;10.780;2023-09-19T08:08:13;11.45;;;4.10;;
45114;SDS011;30877;43.706;10.780;2023-09-19T08:10:42;10.68;;;3.40;;
45114;SDS011;30877;43.706;10.780;2023-09-19T08:13:16;11.00;;;3.67;;
45114;SDS011;30877;43.706;10.780;2023-09-19T08:15:45;13.60;;;4.45;;
45114;SDS011;30877;43.706;10.780;2023-09-19T08:18:14;12.38;;;3.33;;
45114;SDS011;30877;43.706;10.780;2023-09-19T08:20:43;16.98;;;4.40;;
45114;SDS011;30877;43.706;10.780;2023-09-19T08:23:16;12.50;;;3.20;;
45114;SDS011;30877;43.706;10.780;2023-09-19T08:25:49;14.27;;;3.55;;
45114;SDS011;30877;43.706;10.780;2023-09-19T08:28:17;10.88;;;3.58;;
45114;SDS011;30877;43.706;10.780;2023-09-19T08:30:51;20.08;;;4.22;;
45114;SDS011;30877;43.706;10.780;2023-09-19T08:33:22;9.63;;;3.60;;
45114;SDS011;30877;43.706;10.780;2023-09-19T08:35:50;12.30;;;3.33;;
45114;SDS011;30877;43.706;10.780;2023-09-19T08:38:19;11.55;;;3.60;;
45114;SDS011;30877;43.706;10.780;2023-09-19T08:40:48;13.65;;;4.20;;
45114;SDS011;30877;43.706;10.780;2023-09-19T08:43:17;11.93;;;3.75;;
45114;SDS011;30877;43.706;10.780;2023-09-19T08:45:49;13.30;;;3.70;;
45114;SDS011;30877;43.706;10.780;2023-09-19T08:48:20;8.90;;;3.17;;
45114;SDS011;30877;43.706;10.780;2023-09-19T08:50:54;10.02;;;3.30;;
45114;SDS011;30877;43.706;10.780;2023-09-19T08:53:31;8.82;;;3.22;;
45114;SDS011;30877;43.706;10.780;2023-09-19T08:56:11;8.15;;;3.42;;
45114;SDS011;30877;43.706;10.780;2023-09-19T08:58:43;14.00;;;3.30;;
45114;SDS011;30877;43.706;10.780;2023-09-19T09:01:15;7.40;;;2.50;;
45114;SDS011;30877;43.706;10.780;2023-09-19T09:03:45;9.65;;;3.05;;
45114;SDS011;30877;43.706;10.780;2023-09-19T09:06:15;10.95;;;2.85;;
45114;SDS011;30877;43.706;10.780;2023-09-19T09:08:45;9.63;;;3.33;;
45114;SDS011;30877;43.706;10.780;2023-09-19T09:11:16;10.63;;;3.28;;
45114;SDS011;30877;43.706;10.780;2023-09-19T09:13:45;6.07;;;2.83;;
45114;SDS011;30877;43.706;10.780;2023-09-19T09:16:14;7.32;;;3.00;;
45114;SDS011;30877;43.706;10.780;2023-09-19T09:18:46;8.40;;;2.60;;
45114;SDS011;30877;43.706;10.780;2023-09-19T09:21:20;8.05;;;2.97;;
45114;SDS011;30877;43.706;10.780;2023-09-19T09:23:49;6.03;;;2.75;;
45114;SDS011;30877;43.706;10.780;2023-09-19T09:26:24;8.60;;;3.08;;
45114;SDS011;30877;43.706;10.780;2023-09-19T09:29:10;8.32;;;2.78;;
45114;SDS011;30877;43.706;10.780;2023-09-19T09:31:38;9.40;;;2.85;;
45114;SDS011;30877;43.706;10.780;2023-09-19T09:34:10;10.25;;;3.13;;
45114;SDS011;30877;43.706;10.780;2023-09-19T09:36:41;11.95;;;3.17;;
45114;SDS011;30877;43.706;10.780;2023-09-19T09:39:09;8.82;;;3.00;;
45114;SDS011;30877;43.706;10.780;2023-09-19T09:41:54;8.40;;;2.80;;
45114;SDS011;30877;43.706;10.780;2023-09-19T09:44:21;7.75;;;2.83;;
45114;SDS011;30877;43.706;10.780;2023-09-19T09:46:49;10.48;;;3.08;;
45114;SDS011;30877;43.706;10.780;2023-09-19T09:49:22;7.22;;;2.88;;
45114;SDS011;30877;43.706;10.780;2023-09-19T09:52:03;10.20;;;3.08;;
45114;SDS011;30877;43.706;10.780;2023-09-19T09:54:58;7.25;;;2.70;;
45114;SDS011;30877;43.706;10.780;2023-09-19T09:57:29;5.90;;;3.00;;
45114;SDS011;30877;43.706;10.780;2023-09-19T09:59:58;8.45;;;2.97;;
45114;SDS011;30877;43.706;10.780;2023-09-19T10:02:56;7.22;;;3.40;;
45114;SDS011;30877;43.706;10.780;2023-09-19T10:05:24;9.60;;;3.20;;
45114;SDS011;30877;43.706;10.780;2023-09-19T10:07:55;11.55;;;3.63;;
45114;SDS011;30877;43.706;10.780;2023-09-19T10:10:36;9.57;;;2.90;;
45114;SDS011;30877;43.706;10.780;2023-09-19T10:13:28;10.35;;;2.80;;
45114;SDS011;30877;43.706;10.780;2023-09-19T10:15:58;10.48;;;2.80;;
45114;SDS011;30877;43.706;10.780;2023-09-19T10:18:32;7.88;;;2.72;;
45114;SDS011;30877;43.706;10.780;2023-09-19T10:21:06;9.10;;;3.15;;
45114;SDS011;30877;43.706;10.780;2023-09-19T10:23:36;8.07;;;2.63;;
45114;SDS011;30877;43.706;10.780;2023-09-19T10:26:10;8.00;;;2.40;;
45114;SDS011;30877;43.706;10.780;2023-09-19T10:28:40;6.10;;;2.00;;
45114;SDS011;30877;43.706;10.780;2023-09-19T10:31:09;7.68;;;2.38;;
45114;SDS011;30877;43.706;10.780;2023-09-19T10:33:41;7.40;;;2.30;;
45114;SDS011;30877;43.706;10.780;2023-09-19T10:36:10;8.57;;;2.95;;
45114;SDS011;30877;43.706;10.780;2023-09-19T10:38:39;8.82;;;3.00;;
45114;SDS011;30877;43.706;10.780;2023-09-19T10:41:10;7.30;;;2.72;;
45114;SDS011;30877;43.706;10.780;2023-09-19T10:43:42;7.45;;;2.40;;
45114;SDS011;30877;43.706;10.780;2023-09-19T10:46:13;5.57;;;2.35;;
45114;SDS011;30877;43.706;10.780;2023-09-19T10:48:42;7.15;;;2.50;;
45114;SDS011;30877;43.706;10.780;2023-09-19T10:51:16;8.85;;;2.47;;
45114;SDS011;30877;43.706;10.780;2023-09-19T10:53:51;7.57;;;2.38;;
45114;SDS011;30877;43.706;10.780;2023-09-19T10:56:21;7.60;;;2.40;;
45114;SDS011;30877;43.706;10.780;2023-09-19T10:59:06;6.97;;;2.40;;
45114;SDS011;30877;43.706;10.780;2023-09-19T11:01:41;4.90;;;2.25;;
45114;SDS011;30877;43.706;10.780;2023-09-19T11:04:21;10.00;;;3.08;;
45114;SDS011;30877;43.706;10.780;2023-09-19T11:07:03;6.35;;;2.25;;
45114;SDS011;30877;43.706;10.780;2023-09-19T11:09:46;7.97;;;2.75;;
45114;SDS011;30877;43.706;10.780;2023-09-19T11:24:31;5.85;;;2.60;;
45114;SDS011;30877;43.706;10.780;2023-09-19T11:27:10;8.18;;;2.55;;
45114;SDS011;30877;43.706;10.780;2023-09-19T11:29:45;7.03;;;2.28;;
45114;SDS011;30877;43.706;10.780;2023-09-19T11:32:13;7.88;;;2.30;;
45114;SDS011;30877;43.706;10.780;2023-09-19T11:34:46;7.80;;;2.60;;
45114;SDS011;30877;43.706;10.780;2023-09-19T11:40:32;7.32;;;2.45;;
45114;SDS011;30877;43.706;10.780;2023-09-19T11:43:00;9.82;;;2.40;;
45114;SDS011;30877;43.706;10.780;2023-09-19T11:46:02;6.60;;;2.58;;
45114;SDS011;30877;43.706;10.780;2023-09-19T11:48:32;8.98;;;2.58;;
45114;SDS011;30877;43.706;10.780;2023-09-19T11:51:03;10.77;;;2.40;;
45114;SDS011;30877;43.706;10.780;2023-09-19T11:53:47;7.30;;;2.30;;
45114;SDS011;30877;43.706;10.780;2023-09-19T11:56:16;7.90;;;2.80;;
45114;SDS011;30877;43.706;10.780;2023-09-19T11:58:44;7.97;;;2.67;;
45114;SDS011;30877;43.706;10.780;2023-09-19T12:01:13;10.55;;;2.78;;
45114;SDS011;30877;43.706;10.780;2023-09-19T12:03:47;6.53;;;2.28;;
45114;SDS011;30877;43.706;10.780;2023-09-19T12:06:21;9.13;;;2.78;;
45114;SDS011;30877;43.706;10.780;2023-09-19T12:08:50;8.45;;;2.60;;
45114;SDS011;30877;43.706;10.780;2023-09-19T12:11:21;6.90;;;2.10;;
45114;SDS011;30877;43.706;10.780;2023-09-19T12:13:50;5.35;;;2.20;;
45114;SDS011;30877;43.706;10.780;2023-09-19T12:16:20;8.57;;;2.42;;
45114;SDS011;30877;43.706;10.780;2023-09-19T12:18:49;9.43;;;2.60;;
45114;SDS011;30877;43.706;10.780;2023-09-19T12:21:25;5.32;;;2.05;;
45114;SDS011;30877;43.706;10.780;2023-09-19T12:24:04;6.80;;;2.03;;
45114;SDS011;30877;43.706;10.780;2023-09-19T12:26:37;7.13;;;2.30;;
45114;SDS011;30877;43.706;10.780;2023-09-19T12:29:11;5.95;;;2.08;;
45114;SDS011;30877;43.706;10.780;2023-09-19T12:31:48;5.63;;;1.92;;
45114;SDS011;30877;43.706;10.780;2023-09-19T12:34:21;8.30;;;2.63;;
45114;SDS011;30877;43.706;10.780;2023-09-19T12:37:10;6.40;;;1.77;;
45114;SDS011;30877;43.706;10.780;2023-09-19T12:39:39;4.25;;;1.83;;
45114;SDS011;30877;43.706;10.780;2023-09-19T12:42:09;9.55;;;2.20;;
45114;SDS011;30877;43.706;10.780;2023-09-19T12:44:38;9.68;;;2.95;;
45114;SDS011;30877;43.706;10.780;2023-09-19T12:47:11;7.45;;;2.10;;
45114;SDS011;30877;43.706;10.780;2023-09-19T12:52:47;5.70;;;2.33;;
45114;SDS011;30877;43.706;10.780;2023-09-19T12:55:23;6.10;;;2.00;;
45114;SDS011;30877;43.706;10.780;2023-09-19T12:57:56;6.85;;;2.17;;
45114;SDS011;30877;43.706;10.780;2023-09-19T13:00:34;6.45;;;1.98;;
45114;SDS011;30877;43.706;10.780;2023-09-19T13:03:11;8.10;;;1.95;;
45114;SDS011;30877;43.706;10.780;2023-09-19T13:05:46;8.88;;;2.38;;
45114;SDS011;30877;43.706;10.780;2023-09-19T13:08:20;8.10;;;2.20;;
45114;SDS011;30877;43.706;10.780;2023-09-19T13:11:03;7.65;;;2.35;;
45114;SDS011;30877;43.706;10.780;2023-09-19T13:13:38;4.88;;;2.00;;
45114;SDS011;30877;43.706;10.780;2023-09-19T13:16:07;8.27;;;2.33;;
45114;SDS011;30877;43.706;10.780;2023-09-19T13:18:45;7.03;;;1.80;;
45114;SDS011;30877;43.706;10.780;2023-09-19T13:21:26;4.78;;;1.33;;
45114;SDS011;30877;43.706;10.780;2023-09-19T13:24:17;9.55;;;2.28;;
45114;SDS011;30877;43.706;10.780;2023-09-19T13:26:46;6.82;;;2.03;;
45114;SDS011;30877;43.706;10.780;2023-09-19T13:29:15;6.35;;;1.88;;
45114;SDS011;30877;43.706;10.780;2023-09-19T13:31:46;4.57;;;1.63;;
45114;SDS011;30877;43.706;10.780;2023-09-19T13:34:14;6.68;;;1.88;;
45114;SDS011;30877;43.706;10.780;2023-09-19T13:36:44;7.30;;;1.48;;
45114;SDS011;30877;43.706;10.780;2023-09-19T13:39:17;5.60;;;1.90;;
45114;SDS011;30877;43.706;10.780;2023-09-19T13:41:45;7.70;;;2.13;;
45114;SDS011;30877;43.706;10.780;2023-09-19T13:44:14;6.28;;;2.03;;
45114;SDS011;30877;43.706;10.780;2023-09-19T13:46:45;7.45;;;2.00;;
45114;SDS011;30877;43.706;10.780;2023-09-19T13:49:14;6.32;;;1.48;;
45114;SDS011;30877;43.706;10.780;2023-09-19T13:51:43;8.02;;;1.88;;
45114;SDS011;30877;43.706;10.780;2023-09-19T13:54:11;4.60;;;1.42;;
45114;SDS011;30877;43.706;10.780;2023-09-19T13:56:41;5.35;;;1.80;;
45114;SDS011;30877;43.706;10.780;2023-09-19T13:59:10;5.63;;;2.15;;
45114;SDS011;30877;43.706;10.780;2023-09-19T14:01:38;6.20;;;1.73;;
45114;SDS011;30877;43.706;10.780;2023-09-19T14:04:06;10.10;;;1.95;;
45114;SDS011;30877;43.706;10.780;2023-09-19T14:06:35;9.63;;;2.35;;
45114;SDS011;30877;43.706;10.780;2023-09-19T14:09:04;6.15;;;2.15;;
45114;SDS011;30877;43.706;10.780;2023-09-19T14:11:32;7.45;;;2.03;;
45114;SDS011;30877;43.706;10.780;2023-09-19T14:14:02;5.05;;;1.73;;
45114;SDS011;30877;43.706;10.780;2023-09-19T14:16:32;5.43;;;1.98;;
45114;SDS011;30877;43.706;10.780;2023-09-19T14:19:00;8.15;;;2.03;;
45114;SDS011;30877;43.706;10.780;2023-09-19T14:21:29;5.95;;;1.67;;
45114;SDS011;30877;43.706;10.780;2023-09-19T14:23:57;3.83;;;1.70;;
45114;SDS011;30877;43.706;10.780;2023-09-19T14:26:25;5.80;;;1.52;;
45114;SDS011;30877;43.706;10.780;2023-09-19T14:28:53;3.72;;;1.77;;
45114;SDS011;30877;43.706;10.780;2023-09-19T14:31:23;6.60;;;1.92;;
45114;SDS011;30877;43.706;10.780;2023-09-19T14:33:56;5.63;;;1.60;;
45114;SDS011;30877;43.706;10.780;2023-09-19T14:36:26;5.72;;;1.95;;
45114;SDS011;30877;43.706;10.780;2023-09-19T14:38:55;6.30;;;1.73;;
45114;SDS011;30877;43.706;10.780;2023-09-19T14:41:26;8.63;;;2.28;;
45114;SDS011;30877;43.706;10.780;2023-09-19T14:43:54;6.07;;;1.80;;
45114;SDS011;30877;43.706;10.780;2023-09-19T14:46:24;9.07;;;1.70;;
45114;SDS011;30877;43.706;10.780;2023-09-19T14:48:53;8.27;;;1.92;;
45114;SDS011;30877;43.706;10.780;2023-09-19T14:51:21;6.07;;;2.00;;
45114;SDS011;30877;43.706;10.780;2023-09-19T14:53:49;5.60;;;1.80;;
45114;SDS011;30877;43.706;10.780;2023-09-19T14:56:18;5.72;;;1.52;;
45114;SDS011;30877;43.706;10.780;2023-09-19T14:58:47;5.55;;;1.40;;
45114;SDS011;30877;43.706;10.780;2023-09-19T15:01:15;4.57;;;1.60;;
45114;SDS011;30877;43.706;10.780;2023-09-19T15:03:45;6.90;;;1.92;;
45114;SDS011;30877;43.706;10.780;2023-09-19T15:06:16;6.82;;;1.88;;
45114;SDS011;30877;43.706;10.780;2023-09-19T15:08:46;6.00;;;1.80;;
45114;SDS011;30877;43.706;10.780;2023-09-19T15:11:15;7.72;;;2.28;;